Time;durP1;ratioP1;P1;durP2;ratioP2;P2;SDS_P1;SDS_P2;PMS_P1;PMS_P2;Temp;Humidity;BMP_temperature;BMP_pressure;BME280_temperature;BME280_humidity;BME280_pressure;Samples;Min_cycle;Max_cycle;Signal;HPM_P1;HPM_P2
2023/10/19 00:00:55;;;;;;;5.68;5.07;;;13.50;99.90;;;;;;2098268;28;20024;-75
2023/10/19 00:01:58;;;;;;;6.60;4.60;;;13.50;99.90;;;;;;2104187;28;20028;-75
2023/10/19 00:03:02;;;;;;;5.97;5.03;;;13.50;99.90;;;;;;2099024;28;20035;-76
2023/10/19 00:04:03;;;;;;;8.43;5.30;;;13.60;99.90;;;;;;2099151;28;20467;-76
2023/10/19 00:05:09;;;;;;;5.38;4.82;;;13.60;99.90;;;;;;2097746;28;20016;-76
2023/10/19 00:06:11;;;;;;;5.18;4.68;;;13.60;99.90;;;;;;2097465;28;20025;-76
2023/10/19 00:07:15;;;;;;;7.50;4.78;;;13.60;99.90;;;;;;2095112;28;20104;-76
2023/10/19 00:08:25;;;;;;;5.55;4.25;;;13.60;99.90;;;;;;2103885;28;20546;-74
2023/10/19 00:09:29;;;;;;;5.03;4.25;;;13.60;99.90;;;;;;2098460;28;20107;-76
2023/10/19 00:10:34;;;;;;;5.50;4.47;;;13.60;99.90;;;;;;2099364;28;20070;-76
2023/10/19 00:11:35;;;;;;;5.10;4.65;;;13.60;99.90;;;;;;2103412;28;20024;-75
2023/10/19 00:12:36;;;;;;;6.28;4.60;;;13.70;99.90;;;;;;2091546;28;20071;-75
2023/10/19 00:13:39;;;;;;;4.95;4.50;;;13.70;99.90;;;;;;2098304;28;20643;-75
2023/10/19 00:14:40;;;;;;;5.63;4.78;;;13.70;99.90;;;;;;2098511;28;20091;-75
2023/10/19 00:15:48;;;;;;;4.75;4.20;;;13.70;99.90;;;;;;2100031;28;20028;-76
2023/10/19 00:16:53;;;;;;;4.55;4.15;;;13.70;99.90;;;;;;2101679;28;20456;-74
2023/10/19 00:17:56;;;;;;;4.20;3.85;;;13.70;99.90;;;;;;2106966;28;20040;-74
2023/10/19 00:18:59;;;;;;;4.65;4.25;;;13.80;99.90;;;;;;2100409;28;20043;-74
2023/10/19 00:20:29;;;;;;;4.30;3.92;;;13.70;99.90;;;;;;2101001;28;20193;-74
2023/10/19 00:21:27;;;;;;;4.40;4.00;;;13.80;99.90;;;;;;2101042;28;20028;-74
2023/10/19 00:22:30;;;;;;;4.78;4.32;;;13.80;99.90;;;;;;2099099;28;20074;-75
2023/10/19 00:23:34;;;;;;;5.10;4.60;;;13.80;99.90;;;;;;2100302;28;20387;-75
2023/10/19 00:24:35;;;;;;;4.38;3.97;;;13.80;99.90;;;;;;2100060;28;20024;-74
2023/10/19 00:25:41;;;;;;;4.60;4.07;;;13.80;99.90;;;;;;2100032;28;20108;-74
2023/10/19 00:26:41;;;;;;;4.90;4.25;;;13.80;99.90;;;;;;2099135;28;20024;-74
2023/10/19 00:27:42;;;;;;;4.72;4.15;;;13.80;99.90;;;;;;2101286;28;20481;-74
2023/10/19 00:28:45;;;;;;;5.10;4.28;;;13.80;99.90;;;;;;2100408;28;20497;-74
2023/10/19 00:29:49;;;;;;;4.60;4.20;;;13.90;99.90;;;;;;2098940;28;20038;-74
2023/10/19 00:30:52;;;;;;;4.70;4.30;;;13.90;99.90;;;;;;2101472;28;20028;-74
2023/10/19 00:31:53;;;;;;;4.85;3.80;;;13.90;99.90;;;;;;2098205;28;20531;-73
2023/10/19 00:32:54;;;;;;;4.75;4.35;;;13.90;99.90;;;;;;2097681;28;20029;-74
2023/10/19 00:33:56;;;;;;;4.82;4.13;;;13.90;99.90;;;;;;2102679;28;20032;-74
2023/10/19 00:34:56;;;;;;;5.05;4.10;;;14.00;99.90;;;;;;2101379;28;20025;-74
2023/10/19 00:36:10;;;;;;;4.35;3.95;;;14.00;99.90;;;;;;2099364;28;20059;-74
2023/10/19 00:37:10;;;;;;;4.18;3.80;;;14.00;99.90;;;;;;2100931;28;20089;-74
2023/10/19 00:39:27;;;;;;;4.85;4.35;;;14.00;99.90;;;;;;2099825;28;20485;-74
2023/10/19 00:40:34;;;;;;;5.22;4.28;;;14.00;99.90;;;;;;2102888;28;20367;-74
2023/10/19 00:41:37;;;;;;;4.70;4.22;;;14.00;99.90;;;;;;2102200;28;20041;-74
2023/10/19 00:42:45;;;;;;;4.38;3.97;;;14.00;99.90;;;;;;2100109;28;20028;-74
2023/10/19 00:43:46;;;;;;;4.22;3.83;;;14.00;99.90;;;;;;2091921;28;20089;-74
2023/10/19 00:44:50;;;;;;;5.72;4.82;;;14.00;99.90;;;;;;2098802;28;20029;-74
2023/10/19 00:45:52;;;;;;;4.10;3.70;;;14.00;99.90;;;;;;2100849;28;20020;-74
2023/10/19 00:47:03;;;;;;;4.57;4.18;;;14.00;99.90;;;;;;2098572;28;20017;-73
2023/10/19 00:48:08;;;;;;;4.78;4.38;;;14.00;99.90;;;;;;2098530;28;20025;-73
2023/10/19 00:49:12;;;;;;;4.75;4.25;;;14.00;99.90;;;;;;2100033;28;20024;-74
2023/10/19 00:50:21;;;;;;;6.03;4.40;;;14.10;99.90;;;;;;2099941;28;20031;-73
2023/10/19 00:52:54;;;;;;;4.80;4.03;;;14.10;99.90;;;;;;2100392;28;20099;-73
2023/10/19 00:54:13;;;;;;;5.88;5.07;;;14.10;99.90;;;;;;2103510;28;20035;-73
2023/10/19 00:55:15;;;;;;;5.57;4.72;;;14.10;99.90;;;;;;2101658;28;20031;-73
2023/10/19 00:56:18;;;;;;;5.00;4.60;;;14.10;99.90;;;;;;2098927;28;20029;-74
2023/10/19 00:57:20;;;;;;;5.07;4.68;;;14.10;99.90;;;;;;2097971;28;20557;-73
2023/10/19 00:58:29;;;;;;;5.18;4.45;;;14.10;99.90;;;;;;2099247;28;20021;-73
2023/10/19 00:59:30;;;;;;;4.90;4.50;;;14.20;99.90;;;;;;2099576;28;20073;-74
2023/10/19 01:00:31;;;;;;;4.60;4.20;;;14.20;99.90;;;;;;2098679;28;20036;-73
2023/10/19 01:01:40;;;;;;;5.28;4.78;;;14.20;99.90;;;;;;2102296;28;20032;-73
2023/10/19 01:02:45;;;;;;;5.50;4.97;;;14.20;99.90;;;;;;2096909;28;20028;-74
2023/10/19 01:03:52;;;;;;;5.32;4.82;;;14.20;99.90;;;;;;2099889;28;20027;-74
2023/10/19 01:05:00;;;;;;;4.82;4.32;;;14.20;99.90;;;;;;2093599;28;20514;-73
2023/10/19 01:06:05;;;;;;;5.10;4.70;;;14.20;99.90;;;;;;2099293;28;20021;-74
2023/10/19 01:07:15;;;;;;;5.15;4.45;;;14.20;99.90;;;;;;2097946;28;21343;-74
2023/10/19 01:08:34;;;;;;;5.07;4.35;;;14.20;99.90;;;;;;2100925;28;20031;-73
2023/10/19 01:09:36;;;;;;;4.72;4.32;;;14.20;99.90;;;;;;2099369;28;20028;-74
2023/10/19 01:10:37;;;;;;;5.18;4.50;;;14.20;99.90;;;;;;2099477;28;20024;-74
2023/10/19 01:11:37;;;;;;;4.80;4.32;;;14.30;99.90;;;;;;2099251;28;20039;-73
2023/10/19 01:12:41;;;;;;;4.82;4.32;;;14.30;99.90;;;;;;2098354;28;20134;-73
2023/10/19 01:13:44;;;;;;;4.78;4.38;;;14.30;99.90;;;;;;2103278;28;20032;-73
2023/10/19 01:14:45;;;;;;;4.60;4.20;;;14.30;99.90;;;;;;2102535;28;20042;-73
2023/10/19 01:15:49;;;;;;;4.43;4.03;;;14.30;99.90;;;;;;2101375;28;20177;-73
2023/10/19 01:16:49;;;;;;;4.45;4.05;;;14.30;99.90;;;;;;2098687;28;20024;-73
2023/10/19 01:17:52;;;;;;;4.28;3.97;;;14.30;99.90;;;;;;2098785;28;20040;-74
2023/10/19 01:18:53;;;;;;;4.90;4.50;;;14.30;99.90;;;;;;2099015;28;20033;-74
2023/10/19 01:19:54;;;;;;;4.55;4.18;;;14.30;99.90;;;;;;2100252;28;20024;-74
2023/10/19 01:20:55;;;;;;;4.63;4.32;;;14.40;99.90;;;;;;2099417;28;20379;-73
2023/10/19 01:22:02;;;;;;;4.80;4.45;;;14.40;99.90;;;;;;2098380;28;20610;-74
2023/10/19 01:24:09;;;;;;;4.93;4.43;;;14.40;99.90;;;;;;2099639;28;20020;-74
2023/10/19 01:25:10;;;;;;;4.47;4.10;;;14.40;99.90;;;;;;2098163;28;20031;-73
2023/10/19 01:26:14;;;;;;;4.45;4.07;;;14.40;99.90;;;;;;2099776;28;20027;-73
2023/10/19 01:27:16;;;;;;;4.57;3.92;;;14.40;99.90;;;;;;2097704;28;20027;-74
2023/10/19 01:28:17;;;;;;;4.45;3.63;;;14.40;99.90;;;;;;2100983;28;20017;-74
2023/10/19 01:29:26;;;;;;;4.38;3.97;;;14.40;99.90;;;;;;2092139;28;20094;-74
2023/10/19 01:30:27;;;;;;;5.18;4.68;;;14.40;99.90;;;;;;2093222;28;20028;-73
2023/10/19 01:32:30;;;;;;;4.22;3.92;;;14.40;99.90;;;;;;2103166;28;20027;-73
2023/10/19 01:33:30;;;;;;;4.43;4.03;;;14.50;99.90;;;;;;2098761;28;20032;-74
2023/10/19 01:34:33;;;;;;;4.45;4.05;;;14.50;99.90;;;;;;2099527;28;20084;-73
2023/10/19 01:36:56;;;;;;;4.07;3.78;;;14.50;99.90;;;;;;2100448;28;20086;-72
2023/10/19 01:37:56;;;;;;;4.57;4.18;;;14.50;99.90;;;;;;2101482;28;20033;-73
2023/10/19 01:39:00;;;;;;;4.38;3.97;;;14.50;99.90;;;;;;2097232;28;20044;-73
2023/10/19 01:40:01;;;;;;;4.15;3.78;;;14.50;99.90;;;;;;2103130;28;20016;-73
2023/10/19 01:41:21;;;;;;;4.32;3.90;;;14.50;99.90;;;;;;2103569;28;20016;-74
2023/10/19 01:42:22;;;;;;;4.05;3.65;;;14.50;99.90;;;;;;2097854;28;20040;-73
2023/10/19 01:43:25;;;;;;;4.03;3.40;;;14.50;99.90;;;;;;2098149;28;20039;-73
2023/10/19 01:44:26;;;;;;;5.22;3.90;;;14.50;99.90;;;;;;2095579;28;20020;-73
2023/10/19 01:45:27;;;;;;;4.03;3.72;;;14.50;99.90;;;;;;2102609;28;20523;-73
2023/10/19 01:46:31;;;;;;;4.35;4.00;;;14.50;99.90;;;;;;2098744;28;20395;-73
2023/10/19 01:47:32;;;;;;;4.20;3.90;;;14.50;99.90;;;;;;2099232;28;20058;-73
2023/10/19 01:48:37;;;;;;;3.85;3.55;;;14.60;99.90;;;;;;2099104;28;20012;-73
2023/10/19 01:49:38;;;;;;;4.10;3.80;;;14.60;99.90;;;;;;2101339;28;20121;-73
2023/10/19 01:50:41;;;;;;;4.82;3.63;;;14.60;99.90;;;;;;2098865;28;20028;-73
2023/10/19 01:51:44;;;;;;;4.18;3.78;;;14.60;99.90;;;;;;2099487;28;20024;-73
2023/10/19 01:52:44;;;;;;;4.57;3.78;;;14.60;99.90;;;;;;2100356;28;20551;-74
2023/10/19 01:53:45;;;;;;;5.53;3.63;;;14.60;99.90;;;;;;2098749;28;20088;-73
2023/10/19 01:54:45;;;;;;;4.45;4.05;;;14.60;99.90;;;;;;2103702;28;20522;-73
2023/10/19 01:55:47;;;;;;;3.75;3.45;;;14.60;99.90;;;;;;2106540;28;20032;-73
2023/10/19 01:56:50;;;;;;;4.03;3.72;;;14.60;99.90;;;;;;2099217;28;20035;-73
2023/10/19 01:57:51;;;;;;;4.18;3.83;;;14.60;99.90;;;;;;2098703;28;20051;-73
2023/10/19 01:58:53;;;;;;;4.75;3.85;;;14.60;99.90;;;;;;2099194;28;20040;-74
2023/10/19 01:59:55;;;;;;;4.30;4.00;;;14.70;99.90;;;;;;2103407;28;20471;-73
2023/10/19 02:01:00;;;;;;;4.68;3.85;;;14.70;99.90;;;;;;2092439;28;20075;-73
2023/10/19 02:02:02;;;;;;;4.43;4.03;;;14.70;99.90;;;;;;2098257;28;20116;-73
2023/10/19 02:03:07;;;;;;;5.28;4.82;;;14.70;99.90;;;;;;2104076;28;20059;-73
2023/10/19 02:04:08;;;;;;;4.25;3.85;;;14.70;99.90;;;;;;2098671;28;20483;-73
2023/10/19 02:05:15;;;;;;;4.68;4.28;;;14.70;99.90;;;;;;2100971;28;20058;-73
2023/10/19 02:06:28;;;;;;;4.57;4.18;;;14.70;99.90;;;;;;2100909;28;20560;-74
2023/10/19 02:07:29;;;;;;;4.93;4.38;;;14.70;99.90;;;;;;2100859;28;20103;-73
2023/10/19 02:08:29;;;;;;;4.57;4.25;;;14.70;99.90;;;;;;2098504;28;20040;-73
2023/10/19 02:09:32;;;;;;;4.28;3.97;;;14.70;99.90;;;;;;2099363;28;20028;-73
2023/10/19 02:10:37;;;;;;;5.40;4.00;;;14.80;99.90;;;;;;2099618;28;20098;-73
2023/10/19 02:11:46;;;;;;;4.60;4.20;;;14.80;99.90;;;;;;2098334;28;20062;-72
2023/10/19 02:12:46;;;;;;;4.43;4.03;;;14.80;99.90;;;;;;2100479;28;20036;-73
2023/10/19 02:13:49;;;;;;;4.25;3.85;;;14.80;99.90;;;;;;2103740;28;20036;-73
2023/10/19 02:14:49;;;;;;;6.93;3.90;;;14.80;99.90;;;;;;2096656;28;20487;-73
2023/10/19 02:15:51;;;;;;;4.05;3.75;;;14.90;99.90;;;;;;2100088;28;20625;-73
2023/10/19 02:16:57;;;;;;;4.40;4.00;;;14.90;99.90;;;;;;2099881;28;20047;-73
2023/10/19 02:18:01;;;;;;;5.53;4.10;;;14.90;99.90;;;;;;2099505;28;20111;-73
2023/10/19 02:19:02;;;;;;;4.43;4.03;;;14.90;99.90;;;;;;2100655;28;20482;-73
2023/10/19 02:20:12;;;;;;;4.15;3.85;;;14.90;99.90;;;;;;2098326;28;20424;-73
2023/10/19 02:21:12;;;;;;;3.88;3.58;;;14.90;99.90;;;;;;2098930;28;20031;-74
2023/10/19 02:22:13;;;;;;;4.30;3.58;;;14.90;99.90;;;;;;2097771;28;20108;-74
2023/10/19 02:23:14;;;;;;;4.20;3.80;;;14.90;99.90;;;;;;2106689;28;20458;-73
2023/10/19 02:24:15;;;;;;;3.85;3.45;;;15.00;99.90;;;;;;2106922;28;20027;-73
2023/10/19 02:25:17;;;;;;;6.32;3.95;;;15.00;99.90;;;;;;2099646;28;20028;-73
2023/10/19 02:26:19;;;;;;;3.85;3.55;;;15.00;99.90;;;;;;2099487;28;20012;-72
2023/10/19 02:27:22;;;;;;;4.45;4.05;;;15.00;99.90;;;;;;2099002;28;20424;-72
2023/10/19 02:28:29;;;;;;;3.97;3.58;;;15.00;99.90;;;;;;2101663;28;20032;-73
2023/10/19 02:29:30;;;;;;;5.03;3.67;;;15.00;99.90;;;;;;2101015;28;20185;-73
2023/10/19 02:30:31;;;;;;;4.15;3.55;;;15.00;99.90;;;;;;2098320;28;20055;-73
2023/10/19 02:31:32;;;;;;;3.90;3.55;;;15.00;99.90;;;;;;2098747;28;20032;-73
2023/10/19 02:32:33;;;;;;;3.55;3.17;;;15.00;99.90;;;;;;2098773;28;20059;-73
2023/10/19 02:33:33;;;;;;;3.97;3.15;;;15.00;99.90;;;;;;2099694;28;20031;-73
2023/10/19 02:34:34;;;;;;;3.67;3.13;;;15.10;99.90;;;;;;2097894;28;20028;-73
2023/10/19 02:35:35;;;;;;;5.50;3.50;;;15.10;99.90;;;;;;2098259;28;20447;-73
2023/10/19 02:36:37;;;;;;;4.63;3.50;;;15.10;99.90;;;;;;2099612;28;20138;-73
2023/10/19 02:37:38;;;;;;;3.20;2.90;;;15.10;99.90;;;;;;2096465;28;20066;-73
2023/10/19 02:38:41;;;;;;;5.78;3.45;;;15.10;99.90;;;;;;2099774;28;20551;-73
2023/10/19 02:39:43;;;;;;;3.55;3.25;;;15.10;99.90;;;;;;2099320;28;20020;-73
2023/10/19 02:40:45;;;;;;;3.75;2.78;;;15.10;99.90;;;;;;2100218;28;20106;-73
2023/10/19 02:41:48;;;;;;;3.67;3.08;;;15.20;99.90;;;;;;2098259;28;20089;-73
2023/10/19 02:42:50;;;;;;;2.92;2.72;;;15.20;99.90;;;;;;2102385;28;20024;-73
2023/10/19 02:43:51;;;;;;;3.30;2.70;;;15.20;99.90;;;;;;2092383;28;20031;-72
2023/10/19 02:44:51;;;;;;;3.42;2.72;;;15.20;99.90;;;;;;2097600;28;20107;-72
2023/10/19 02:45:53;;;;;;;2.95;2.60;;;15.20;99.90;;;;;;2096716;28;20090;-72
2023/10/19 02:46:58;;;;;;;4.13;2.83;;;15.20;99.90;;;;;;2105012;28;20020;-73
2023/10/19 02:47:59;;;;;;;3.50;2.75;;;15.20;99.90;;;;;;2104826;28;20020;-73
2023/10/19 02:49:04;;;;;;;3.60;2.58;;;15.20;99.90;;;;;;2101676;28;20519;-72
2023/10/19 02:50:10;;;;;;;3.40;3.00;;;15.30;99.90;;;;;;2102368;28;20083;-72
2023/10/19 02:51:12;;;;;;;3.65;2.63;;;15.20;99.90;;;;;;2098847;28;20435;-72
2023/10/19 02:52:16;;;;;;;3.03;2.75;;;15.30;99.90;;;;;;2098190;28;20550;-72
2023/10/19 02:53:19;;;;;;;4.55;2.90;;;15.30;99.90;;;;;;2098209;28;20024;-73
2023/10/19 02:54:24;;;;;;;3.03;2.58;;;15.30;99.90;;;;;;2097038;28;20028;-72
2023/10/19 02:55:25;;;;;;;2.22;2.03;;;15.20;99.90;;;;;;2097523;28;20028;-72
2023/10/19 02:56:29;;;;;;;3.78;2.53;;;15.20;99.90;;;;;;2098669;28;20158;-73
2023/10/19 02:57:31;;;;;;;2.38;2.17;;;15.30;99.90;;;;;;2099298;28;20676;-72
2023/10/19 02:58:31;;;;;;;2.30;2.10;;;15.30;99.90;;;;;;2095990;28;20029;-72
2023/10/19 02:59:33;;;;;;;9.75;2.50;;;15.30;99.90;;;;;;2100714;28;20031;-73
2023/10/19 03:00:39;;;;;;;2.35;2.15;;;15.30;99.90;;;;;;2098976;28;20067;-72
2023/10/19 03:01:43;;;;;;;3.33;2.50;;;15.30;99.90;;;;;;2096971;28;20043;-73
2023/10/19 03:02:44;;;;;;;2.50;2.30;;;15.30;99.90;;;;;;2099101;28;20107;-72
2023/10/19 03:03:46;;;;;;;4.18;2.65;;;15.30;99.90;;;;;;2096193;28;20031;-72
2023/10/19 03:04:46;;;;;;;3.67;2.28;;;15.30;99.90;;;;;;2096975;28;20052;-73
2023/10/19 03:05:47;;;;;;;3.42;2.13;;;15.30;99.90;;;;;;2098456;28;20482;-72
2023/10/19 03:06:49;;;;;;;2.35;2.15;;;15.40;99.90;;;;;;2098736;28;20024;-72
2023/10/19 03:07:52;;;;;;;3.15;2.45;;;15.40;99.90;;;;;;2097065;28;20064;-72
2023/10/19 03:08:57;;;;;;;2.30;2.10;;;15.40;99.90;;;;;;2099040;28;20063;-72
2023/10/19 03:10:02;;;;;;;2.95;1.92;;;15.40;99.90;;;;;;2096345;28;20021;-72
2023/10/19 03:11:06;;;;;;;3.05;2.13;;;15.40;99.90;;;;;;2096915;28;20028;-72
2023/10/19 03:12:10;;;;;;;2.53;1.73;;;15.40;99.90;;;;;;2098120;28;20043;-72
2023/10/19 03:13:14;;;;;;;3.08;1.85;;;15.40;99.90;;;;;;2098979;28;20048;-72
2023/10/19 03:14:16;;;;;;;3.35;1.95;;;15.40;99.90;;;;;;2097764;28;20983;-72
2023/10/19 03:15:20;;;;;;;2.47;1.65;;;15.40;99.90;;;;;;2097865;28;20035;-72
2023/10/19 03:16:23;;;;;;;3.47;1.85;;;15.40;99.90;;;;;;2097741;28;20032;-72
2023/10/19 03:17:25;;;;;;;2.13;1.70;;;15.40;99.90;;;;;;2097620;28;20031;-72
2023/10/19 03:18:26;;;;;;;3.67;2.45;;;15.40;99.90;;;;;;2101371;28;20020;-72
2023/10/19 03:19:26;;;;;;;3.92;2.13;;;15.50;99.90;;;;;;2091399;28;20059;-72
2023/10/19 03:20:33;;;;;;;2.63;1.73;;;15.50;99.90;;;;;;2097461;28;20029;-72
2023/10/19 03:21:42;;;;;;;4.03;1.67;;;15.50;99.90;;;;;;2101775;28;20059;-72
2023/10/19 03:22:43;;;;;;;2.90;2.17;;;15.50;99.90;;;;;;2094466;28;20096;-73
2023/10/19 03:23:44;;;;;;;3.83;1.42;;;15.50;99.90;;;;;;2098547;28;20031;-72
2023/10/19 03:24:45;;;;;;;3.05;1.83;;;15.50;99.90;;;;;;2097553;28;20028;-72
2023/10/19 03:27:15;;;;;;;3.80;2.55;;;15.50;99.90;;;;;;2097391;28;20024;-72
2023/10/19 03:28:17;;;;;;;3.33;2.08;;;15.50;99.90;;;;;;2099574;28;20023;-72
2023/10/19 03:29:38;;;;;;;2.67;1.85;;;15.50;99.90;;;;;;2099744;28;20119;-72
2023/10/19 03:30:38;;;;;;;2.80;1.80;;;15.50;99.90;;;;;;2101286;28;20024;-72
2023/10/19 03:31:43;;;;;;;2.63;1.60;;;15.50;99.90;;;;;;2099231;28;20027;-73
2023/10/19 03:32:43;;;;;;;3.20;1.80;;;15.50;99.90;;;;;;2097497;28;20024;-72
2023/10/19 03:33:49;;;;;;;3.03;1.98;;;15.50;99.90;;;;;;2098438;28;20082;-72
2023/10/19 03:34:52;;;;;;;2.90;1.90;;;15.50;99.90;;;;;;2099950;28;20060;-72
2023/10/19 03:35:53;;;;;;;2.92;1.73;;;15.60;99.90;;;;;;2099019;28;20544;-72
2023/10/19 03:36:54;;;;;;;2.33;1.73;;;15.60;99.90;;;;;;2100163;28;20032;-72
2023/10/19 03:37:58;;;;;;;2.15;1.70;;;15.60;99.90;;;;;;2101049;28;20529;-72
2023/10/19 03:39:11;;;;;;;3.33;1.73;;;15.60;99.90;;;;;;2098599;28;20027;-72
2023/10/19 03:40:25;;;;;;;3.40;1.80;;;15.60;99.90;;;;;;2098177;28;20467;-73
2023/10/19 03:41:26;;;;;;;4.07;1.52;;;15.60;99.90;;;;;;2097852;28;20523;-72
2023/10/19 03:42:32;;;;;;;3.13;1.48;;;15.50;99.90;;;;;;2099654;28;20023;-73
2023/10/19 03:43:34;;;;;;;2.10;1.65;;;15.60;99.90;;;;;;2099091;28;20019;-72
2023/10/19 03:45:52;;;;;;;2.92;1.50;;;15.60;99.90;;;;;;2097230;28;20025;-72
2023/10/19 03:46:53;;;;;;;2.63;1.58;;;15.60;99.90;;;;;;2097879;28;20032;-73
2023/10/19 03:47:55;;;;;;;2.58;1.70;;;15.60;99.90;;;;;;2097517;28;20491;-73
2023/10/19 03:49:10;;;;;;;4.45;2.08;;;15.60;99.90;;;;;;2100126;28;20017;-72
2023/10/19 03:50:15;;;;;;;3.67;1.60;;;15.60;99.90;;;;;;2098522;28;20035;-73
2023/10/19 03:51:17;;;;;;;2.97;1.65;;;15.60;99.90;;;;;;2098646;28;20021;-73
2023/10/19 03:53:18;;;;;;;3.25;1.60;;;15.60;99.90;;;;;;2098608;28;20028;-72
2023/10/19 03:54:21;;;;;;;2.33;1.60;;;15.60;99.90;;;;;;2098408;28;20485;-72
2023/10/19 03:55:23;;;;;;;4.28;1.55;;;15.70;99.90;;;;;;2097419;28;20077;-73
2023/10/19 03:56:24;;;;;;;2.08;1.35;;;15.60;99.90;;;;;;2101255;28;20422;-72
2023/10/19 03:57:25;;;;;;;5.20;1.40;;;15.70;99.90;;;;;;2100003;28;20070;-73
2023/10/19 03:58:30;;;;;;;2.05;1.20;;;15.70;99.90;;;;;;2101521;28;20057;-73
2023/10/19 03:59:33;;;;;;;4.57;1.60;;;15.70;99.90;;;;;;2093916;28;20559;-72
2023/10/19 04:00:34;;;;;;;2.05;1.63;;;15.70;99.90;;;;;;2097604;28;20020;-73
2023/10/19 04:01:35;;;;;;;2.00;1.20;;;15.70;99.90;;;;;;2100897;28;20459;-72
2023/10/19 04:02:38;;;;;;;3.53;1.50;;;15.70;99.90;;;;;;2101887;28;20032;-72
2023/10/19 04:03:38;;;;;;;2.85;1.50;;;15.70;99.90;;;;;;2096977;28;20025;-72
2023/10/19 04:04:48;;;;;;;4.50;2.00;;;15.70;99.90;;;;;;2098106;28;20028;-72
2023/10/19 04:05:49;;;;;;;1.77;1.25;;;15.70;99.90;;;;;;2098677;28;20032;-73
2023/10/19 04:06:57;;;;;;;2.95;1.80;;;15.70;99.90;;;;;;2099196;28;20096;-72
2023/10/19 04:07:58;;;;;;;3.97;1.27;;;15.70;99.90;;;;;;2097550;28;20024;-73
2023/10/19 04:08:59;;;;;;;2.67;1.33;;;15.70;99.90;;;;;;2097876;28;20012;-73
2023/10/19 04:10:04;;;;;;;2.65;1.20;;;15.70;99.90;;;;;;2097462;28;20028;-72
2023/10/19 04:11:08;;;;;;;3.92;1.95;;;15.70;99.90;;;;;;2098266;28;20021;-72
2023/10/19 04:12:10;;;;;;;2.90;1.60;;;15.70;99.90;;;;;;2099828;28;20016;-74
2023/10/19 04:13:12;;;;;;;3.17;1.58;;;15.70;99.90;;;;;;2097703;28;20036;-73
2023/10/19 04:14:15;;;;;;;2.13;1.40;;;15.70;99.90;;;;;;2096605;28;20040;-73
2023/10/19 04:15:15;;;;;;;2.58;1.40;;;15.80;99.90;;;;;;2098230;28;20024;-73
2023/10/19 04:16:16;;;;;;;2.13;1.50;;;15.70;99.90;;;;;;2098736;28;20020;-72
2023/10/19 04:17:21;;;;;;;3.35;1.30;;;15.80;99.90;;;;;;2099366;28;20133;-73
2023/10/19 04:18:25;;;;;;;3.17;1.48;;;15.80;99.90;;;;;;2098294;28;20033;-72
2023/10/19 04:19:28;;;;;;;2.42;1.33;;;15.80;99.90;;;;;;2098228;28;20025;-73
2023/10/19 04:20:30;;;;;;;2.33;1.33;;;15.80;99.90;;;;;;2099368;28;20454;-72
2023/10/19 04:21:30;;;;;;;2.60;1.20;;;15.70;99.90;;;;;;2098429;28;20033;-72
2023/10/19 04:22:34;;;;;;;1.95;1.50;;;15.80;99.90;;;;;;2097378;28;20547;-73
2023/10/19 04:23:36;;;;;;;2.35;1.40;;;15.80;99.90;;;;;;2101409;28;20024;-72
2023/10/19 04:24:36;;;;;;;4.28;1.25;;;15.80;99.90;;;;;;2101644;28;20070;-73
2023/10/19 04:25:37;;;;;;;2.85;1.20;;;15.70;99.90;;;;;;2097344;28;20033;-73
2023/10/19 04:26:38;;;;;;;2.00;1.23;;;15.80;99.90;;;;;;2096534;28;20028;-72
2023/10/19 04:27:41;;;;;;;3.58;1.27;;;15.80;99.90;;;;;;2097645;28;20032;-73
2023/10/19 04:28:49;;;;;;;2.28;1.20;;;15.80;99.90;;;;;;2096072;28;20024;-73
2023/10/19 04:29:49;;;;;;;1.95;1.50;;;15.80;99.90;;;;;;2102869;28;20043;-73
2023/10/19 04:30:50;;;;;;;4.03;1.40;;;15.80;99.90;;;;;;2102609;28;20078;-72
2023/10/19 04:31:54;;;;;;;1.83;1.35;;;15.80;99.90;;;;;;2097208;28;20333;-72
2023/10/19 04:32:57;;;;;;;1.63;1.08;;;15.80;99.90;;;;;;2097622;28;20036;-72
2023/10/19 04:34:06;;;;;;;2.00;0.95;;;15.80;99.90;;;;;;2097752;28;20078;-73
2023/10/19 04:35:09;;;;;;;1.38;1.25;;;15.80;99.90;;;;;;2097822;28;20027;-73
2023/10/19 04:36:11;;;;;;;1.75;1.15;;;15.80;99.90;;;;;;2097714;28;20448;-73
2023/10/19 04:37:12;;;;;;;2.67;1.33;;;15.80;99.90;;;;;;2096682;28;20105;-73
2023/10/19 04:38:13;;;;;;;2.92;1.20;;;15.80;99.90;;;;;;2102810;28;20024;-73
2023/10/19 04:39:14;;;;;;;2.03;1.08;;;15.80;99.90;;;;;;2101691;28;20340;-73
2023/10/19 04:40:15;;;;;;;2.35;1.48;;;15.80;99.90;;;;;;2097091;28;20044;-73
2023/10/19 04:41:16;;;;;;;3.00;1.30;;;15.80;99.90;;;;;;2102317;28;20024;-72
2023/10/19 04:42:18;;;;;;;1.80;1.35;;;15.90;99.90;;;;;;2097910;28;20085;-72
2023/10/19 04:43:21;;;;;;;1.27;1.17;;;15.90;99.90;;;;;;2097111;28;20494;-72
2023/10/19 04:44:22;;;;;;;2.67;1.30;;;15.90;99.90;;;;;;2096766;28;20024;-73
2023/10/19 04:45:23;;;;;;;1.98;1.02;;;15.90;99.90;;;;;;2098389;28;20020;-73
2023/10/19 04:46:24;;;;;;;3.30;1.15;;;15.90;99.90;;;;;;2090998;28;20032;-73
2023/10/19 04:47:24;;;;;;;2.40;1.17;;;15.90;99.90;;;;;;2091823;28;20025;-73
2023/10/19 04:48:25;;;;;;;6.03;1.00;;;15.90;99.90;;;;;;2097540;28;20073;-73
2023/10/19 04:49:26;;;;;;;1.65;1.10;;;15.80;99.90;;;;;;2102805;28;20024;-73
2023/10/19 04:50:27;;;;;;;2.38;1.00;;;15.90;99.90;;;;;;2100904;28;20024;-73
2023/10/19 04:51:28;;;;;;;1.10;1.00;;;15.90;99.90;;;;;;2097764;28;20035;-73
2023/10/19 04:52:29;;;;;;;1.40;1.00;;;15.90;99.90;;;;;;2101283;28;20031;-75
2023/10/19 04:53:32;;;;;;;1.63;0.90;;;15.90;99.90;;;;;;2100925;28;20096;-76
2023/10/19 04:54:32;;;;;;;2.70;1.10;;;15.90;99.90;;;;;;2105083;28;20109;-72
2023/10/19 04:55:33;;;;;;;1.80;1.17;;;15.90;99.90;;;;;;2094810;28;20040;-72
2023/10/19 04:56:35;;;;;;;2.70;1.10;;;15.90;99.90;;;;;;2095922;28;20170;-72
2023/10/19 04:57:36;;;;;;;2.20;1.02;;;15.90;99.90;;;;;;2104052;28;20020;-72
2023/10/19 04:58:37;;;;;;;2.83;1.10;;;15.90;99.90;;;;;;2097409;28;20028;-72
2023/10/19 04:59:37;;;;;;;3.47;1.25;;;15.90;99.90;;;;;;2090300;28;20602;-73
2023/10/19 05:00:43;;;;;;;2.65;1.30;;;15.90;99.90;;;;;;2098707;28;20376;-73
2023/10/19 05:01:44;;;;;;;2.95;1.55;;;15.90;99.90;;;;;;2097348;28;20032;-72
2023/10/19 05:02:45;;;;;;;2.85;1.20;;;15.90;99.90;;;;;;2098370;28;20078;-72
2023/10/19 05:03:45;;;;;;;1.83;1.17;;;16.00;99.90;;;;;;2098424;28;20032;-73
2023/10/19 05:04:46;;;;;;;2.83;1.25;;;15.90;99.90;;;;;;2100732;28;20410;-72
2023/10/19 05:05:47;;;;;;;4.10;1.23;;;15.90;99.90;;;;;;2098519;28;20017;-73
2023/10/19 05:06:47;;;;;;;4.60;1.00;;;15.90;99.90;;;;;;2099244;28;20107;-73
2023/10/19 05:07:48;;;;;;;3.30;1.23;;;15.90;99.90;;;;;;2100665;28;20531;-72
2023/10/19 05:08:49;;;;;;;1.83;1.17;;;15.90;99.90;;;;;;2099770;28;20030;-72
2023/10/19 05:09:49;;;;;;;1.98;1.05;;;15.90;99.90;;;;;;2099306;28;20074;-74
2023/10/19 05:10:52;;;;;;;3.28;1.10;;;15.90;99.90;;;;;;2100619;28;20037;-74
2023/10/19 05:11:52;;;;;;;2.45;1.55;;;15.90;99.90;;;;;;2096768;28;20093;-74
2023/10/19 05:12:54;;;;;;;1.10;0.95;;;15.90;99.90;;;;;;2101980;28;20505;-75
2023/10/19 05:13:55;;;;;;;3.70;1.27;;;15.90;99.90;;;;;;2098462;28;20026;-75
2023/10/19 05:14:55;;;;;;;4.97;1.45;;;16.00;99.90;;;;;;2097995;28;20039;-74
2023/10/19 05:15:58;;;;;;;2.22;1.13;;;15.90;99.90;;;;;;2107389;28;20571;-74
2023/10/19 05:16:59;;;;;;;3.63;1.05;;;15.90;99.90;;;;;;2105720;28;20031;-74
2023/10/19 05:18:00;;;;;;;9.10;1.45;;;16.00;99.90;;;;;;2099909;28;20059;-75
2023/10/19 05:19:01;;;;;;;1.85;1.20;;;15.90;99.90;;;;;;2099216;28;20508;-75
2023/10/19 05:20:04;;;;;;;1.85;0.88;;;15.90;99.90;;;;;;2101961;28;20923;-75
2023/10/19 05:21:05;;;;;;;1.52;1.10;;;15.90;99.90;;;;;;2102115;28;20020;-74
2023/10/19 05:22:08;;;;;;;3.10;1.00;;;16.00;99.90;;;;;;2101692;28;20103;-75
2023/10/19 05:23:09;;;;;;;5.15;1.10;;;15.90;99.90;;;;;;2100831;28;20367;-74
2023/10/19 05:24:10;;;;;;;2.83;1.23;;;15.90;99.90;;;;;;2099520;28;20040;-74
2023/10/19 05:25:10;;;;;;;3.05;1.35;;;16.00;99.90;;;;;;2098132;28;20491;-74
2023/10/19 05:26:12;;;;;;;2.53;1.02;;;15.90;99.90;;;;;;2097661;28;20028;-75
2023/10/19 05:27:13;;;;;;;2.72;1.45;;;16.00;99.90;;;;;;2098715;28;20604;-74
2023/10/19 05:28:14;;;;;;;3.15;1.42;;;16.00;99.90;;;;;;2098321;28;20513;-73
2023/10/19 05:29:15;;;;;;;2.70;1.30;;;15.90;99.90;;;;;;2098822;28;20016;-75
2023/10/19 05:30:16;;;;;;;5.30;1.38;;;15.90;99.90;;;;;;2099285;28;20033;-75
2023/10/19 05:31:16;;;;;;;2.25;1.67;;;15.90;99.90;;;;;;2099238;28;20048;-75
2023/10/19 05:32:17;;;;;;;1.63;1.00;;;15.90;99.90;;;;;;2100450;28;20032;-74
2023/10/19 05:33:21;;;;;;;5.05;1.10;;;15.90;99.90;;;;;;2099673;28;20038;-75
2023/10/19 05:34:22;;;;;;;5.65;1.50;;;15.90;99.90;;;;;;2098401;28;20033;-75
2023/10/19 05:35:26;;;;;;;1.58;1.45;;;15.90;99.90;;;;;;2100312;28;20497;-74
2023/10/19 05:36:26;;;;;;;2.65;1.15;;;15.90;99.90;;;;;;2096065;28;20040;-73
2023/10/19 05:37:29;;;;;;;2.10;1.13;;;16.00;99.90;;;;;;2098290;28;20032;-74
2023/10/19 05:38:31;;;;;;;4.47;1.42;;;16.00;99.90;;;;;;2099458;28;20036;-75